createdAt,value
2023-02-22T00:03:24.775Z,12.62
2023-02-22T00:10:26.651Z,12.56
2023-02-22T00:17:30.364Z,12.58
2023-02-22T00:24:32.675Z,12.65
2023-02-22T00:31:37.671Z,12.59
2023-02-22T00:38:40.421Z,12.53
2023-02-22T00:45:42.132Z,12.50
2023-02-22T00:52:43.853Z,12.48
2023-02-22T00:59:45.381Z,12.46
2023-02-22T01:06:46.924Z,12.32
2023-02-22T01:13:48.472Z,12.23
2023-02-22T01:20:50.052Z,12.14
2023-02-22T01:27:51.793Z,12.12
2023-02-22T01:34:54.066Z,12.07
2023-02-22T01:41:55.813Z,11.97
2023-02-22T01:49:00.359Z,11.92
2023-02-22T01:56:01.954Z,11.78
2023-02-22T02:03:07.290Z,11.70
2023-02-22T02:10:15.290Z,11.71
2023-02-22T02:17:18.237Z,11.73
2023-02-22T02:24:39.570Z,11.66
2023-02-22T02:31:57.523Z,11.60
2023-02-22T02:39:28.570Z,11.52
2023-02-22T02:46:51.173Z,11.51
2023-02-22T02:53:54.681Z,11.46
2023-02-22T03:01:00.063Z,11.48
2023-02-22T03:08:20.819Z,11.47
2023-02-22T03:15:39.945Z,11.48
2023-02-22T03:22:55.291Z,11.47
2023-02-22T03:30:00.301Z,11.37
2023-02-22T03:37:07.072Z,11.51
2023-02-22T03:44:13.881Z,11.56
2023-02-22T03:51:17.086Z,11.58
2023-02-22T03:58:23.005Z,11.60
2023-02-22T04:05:25.808Z,11.49
2023-02-22T04:12:27.503Z,11.52
2023-02-22T04:19:33.652Z,11.35
2023-02-22T04:26:35.601Z,11.45
2023-02-22T04:33:38.634Z,11.38
2023-02-22T04:40:40.275Z,11.36
2023-02-22T04:47:42.584Z,11.36
2023-02-22T04:54:44.335Z,11.36
2023-02-22T05:01:46.708Z,11.31
2023-02-22T05:08:48.301Z,11.18
2023-02-22T05:15:49.993Z,11.16
2023-02-22T05:22:51.977Z,11.16
2023-02-22T05:29:53.589Z,11.24
2023-02-22T05:36:55.100Z,11.12
2023-02-22T05:43:56.873Z,11.13
2023-02-22T05:50:58.440Z,11.23
2023-02-22T05:58:01.626Z,11.26
2023-02-22T06:05:03.395Z,11.17
2023-02-22T06:12:05.335Z,11.35
2023-02-22T06:19:06.878Z,11.41
2023-02-22T06:26:08.411Z,11.39
2023-02-22T06:33:10.371Z,11.56
2023-02-22T06:40:12.214Z,11.56
2023-02-22T06:47:13.765Z,11.63
2023-02-22T06:54:15.294Z,11.52
2023-02-22T07:01:17.357Z,11.34
2023-02-22T07:08:19.126Z,11.38
2023-02-22T07:15:22.300Z,11.48
2023-02-22T07:22:23.867Z,11.67
2023-02-22T07:29:25.433Z,11.64
2023-02-22T07:36:26.973Z,11.56
2023-02-22T07:43:29.123Z,11.60
2023-02-22T07:50:33.770Z,11.63
2023-02-22T07:57:35.310Z,11.81
2023-02-22T08:04:36.823Z,11.73
2023-02-22T08:11:38.451Z,11.57
2023-02-22T08:18:41.020Z,11.64
2023-02-22T08:25:42.616Z,11.75
2023-02-22T08:32:48.009Z,11.67
2023-02-22T08:39:49.663Z,11.83
2023-02-22T08:46:51.405Z,11.79
2023-02-22T08:53:53.668Z,11.99
2023-02-22T09:00:55.278Z,12.01
2023-02-22T09:07:57.288Z,11.81
2023-02-22T09:14:58.867Z,11.97
2023-02-22T09:22:00.494Z,12.04
2023-02-22T09:29:02.072Z,12.10
2023-02-22T09:36:03.882Z,12.04
2023-02-22T09:43:20.649Z,12.25
2023-02-22T09:50:28.215Z,12.55
2023-02-22T09:57:35.116Z,12.75
2023-02-22T10:04:45.543Z,12.88
2023-02-22T10:11:59.459Z,12.60
2023-02-22T10:19:13.528Z,12.79
2023-02-22T10:26:17.548Z,12.93
2023-02-22T10:33:21.415Z,13.08
2023-02-22T10:40:31.859Z,12.82
2023-02-22T10:47:33.282Z,13.09
2023-02-22T10:54:37.943Z,13.15
2023-02-22T11:01:40.871Z,13.17
2023-02-22T11:08:44.057Z,13.19
2023-02-22T11:15:45.643Z,13.43
2023-02-22T11:22:47.168Z,12.96
2023-02-22T11:29:50.868Z,12.94
2023-02-22T11:36:52.484Z,13.24
2023-02-22T11:43:57.011Z,13.45
2023-02-22T11:51:35.949Z,13.30
2023-02-22T11:58:42.609Z,13.16
2023-02-22T12:06:11.180Z,13.17
2023-02-22T12:13:31.129Z,13.35
2023-02-22T12:20:45.620Z,13.43
2023-02-22T12:27:58.612Z,13.24
2023-02-22T12:35:09.389Z,13.08
2023-02-22T12:42:17.547Z,13.32
2023-02-22T12:49:30.384Z,13.48
2023-02-22T12:56:36.608Z,13.14
2023-02-22T13:03:42.405Z,13.27
2023-02-22T13:11:32.752Z,13.43
2023-02-22T13:18:54.585Z,13.54
2023-02-22T13:26:08.096Z,13.67
2023-02-22T13:33:31.973Z,13.23
2023-02-22T13:40:43.447Z,13.54
2023-02-22T13:48:00.719Z,13.56
2023-02-22T13:55:04.011Z,13.45
2023-02-22T14:02:07.843Z,13.53
2023-02-22T14:09:09.955Z,13.59
2023-02-22T14:16:11.440Z,13.22
2023-02-22T14:23:44.365Z,13.31
2023-02-22T14:30:45.971Z,13.39
2023-02-22T14:37:55.038Z,13.26
2023-02-22T14:44:59.523Z,13.49
2023-02-22T14:52:04.562Z,13.34
2023-02-22T14:59:13.848Z,13.36
2023-02-22T15:06:23.554Z,13.12
2023-02-22T15:13:26.821Z,13.09
2023-02-22T15:20:28.596Z,13.17
2023-02-22T15:27:30.157Z,13.00
2023-02-22T15:34:32.013Z,13.05
2023-02-22T15:41:34.014Z,12.82
2023-02-22T15:48:37.209Z,12.86
2023-02-22T15:55:40.351Z,12.82
2023-02-22T16:02:42.262Z,12.95
2023-02-22T16:09:48.436Z,12.77
2023-02-22T16:16:50.151Z,12.95
2023-02-22T16:23:53.315Z,12.82
2023-02-22T16:30:58.271Z,12.72
2023-02-22T16:38:04.853Z,12.68
2023-02-22T16:45:06.919Z,12.76
2023-02-22T16:52:08.608Z,12.65
2023-02-22T16:59:14.772Z,12.78
2023-02-22T17:06:16.841Z,12.53
2023-02-22T17:13:26.488Z,12.47
2023-02-22T17:20:31.495Z,12.33
2023-02-22T17:27:33.087Z,12.41
2023-02-22T17:34:34.710Z,12.50
2023-02-22T17:41:39.500Z,12.50
2023-02-22T17:48:41.913Z,12.33
2023-02-22T17:55:43.664Z,12.15
2023-02-22T18:02:45.264Z,12.30
2023-02-22T18:09:47.022Z,12.11
2023-02-22T18:16:48.821Z,12.13
2023-02-22T18:23:50.464Z,12.12
2023-02-22T18:30:54.716Z,11.98
2023-02-22T18:37:56.410Z,11.90
2023-02-22T18:45:00.657Z,12.02
2023-02-22T18:52:02.336Z,11.88
2023-02-22T18:59:04.032Z,11.87
2023-02-22T19:06:10.005Z,11.89
2023-02-22T19:13:11.757Z,11.80
2023-02-22T19:20:13.309Z,11.76
2023-02-22T19:27:14.892Z,11.51
2023-02-22T19:34:16.760Z,11.59
2023-02-22T19:41:20.446Z,11.63
2023-02-22T19:48:22.760Z,11.59
2023-02-22T19:55:24.360Z,11.49
2023-02-22T20:02:27.442Z,11.41
2023-02-22T20:09:36.469Z,11.24
2023-02-22T20:16:38.288Z,11.24
2023-02-22T20:23:44.398Z,11.17
2023-02-22T20:30:46.047Z,11.12
2023-02-22T20:37:47.600Z,11.12
2023-02-22T20:44:49.993Z,11.13
2023-02-22T20:51:51.651Z,10.88
2023-02-22T20:58:55.039Z,10.69
2023-02-22T21:05:56.631Z,10.55
2023-02-22T21:12:58.843Z,10.71
2023-02-22T21:20:04.826Z,10.61
2023-02-22T21:27:06.968Z,10.47
2023-02-22T21:34:11.402Z,10.70
2023-02-22T21:41:13.522Z,10.67
2023-02-22T21:48:15.179Z,10.53
2023-02-22T21:55:19.175Z,10.28
2023-02-22T22:02:22.110Z,10.45
2023-02-22T22:09:24.077Z,10.32
2023-02-22T22:16:29.325Z,10.29
2023-02-22T22:23:31.548Z,10.40
2023-02-22T22:30:34.674Z,10.19
2023-02-22T22:37:36.281Z,9.92
2023-02-22T22:44:41.922Z,9.86
2023-02-22T22:51:47.227Z,10.00
2023-02-22T22:58:51.290Z,9.75
2023-02-22T23:05:53.182Z,9.58
2023-02-22T23:12:56.365Z,9.85
2023-02-22T23:19:57.999Z,9.60
2023-02-22T23:27:00.188Z,9.69
2023-02-22T23:34:10.839Z,9.49
2023-02-22T23:41:16.310Z,9.43
2023-02-22T23:48:20.634Z,9.44
2023-02-22T23:55:25.875Z,9.49
